Shipshewana, IN

10:58 AM EDT on August 22, 2014 (GMT -0400)
Kirsch Municipal | Change Station
CLOSE
Current Station
Airport
Location: Sturgis,
Elevation: 925 ft
Nearby Weather Stations

Elev 925 ft 41.82 °N, 85.44 °W | Updated 4 minutes ago

Thunderstorm
Thunderstorm
73 °F
Feels Like 73 °F
N
6
Wind Variable Wind from SSW
Gusts 7 mph

Today
High -- | Low -- °F
--% Chance of Precip.
Yesterday
High -- | Low -- °F
Precip. -- in
6:58 AM 8:31 PM
Waning Crescent, 8% visible
Pressure 29.98 in
Visibility 10.0 miles
Clouds
Dew Point 72 °F
Humidity 94%
Rainfall 0.00 in
Snow Depth Not available.
UV Not available.
Pollen 8.70 out of 12
Air Quality Not available.
Flu Activity Not available.
METAR KIRS 221454Z AUTO 20005KT 10SM 23/22 A2998 RMK AO2

More Conditions Fewer Conditions

Pressure 29.98 in
Visibility 10.0 miles
Clouds
Dew Point 72 °F
Humidity 94%
Rainfall 0.00 in
Snow Depth Not available.
UV Not available.
Pollen 8.70 out of 12
Air Quality Not available.
Flu Activity Not available.
METAR KIRS 221454Z AUTO 20005KT 10SM 23/22 A2998 RMK AO2

More Conditions Fewer Conditions

10-Day Weather Forecast

Almanac

Astronomy

Aug. 22, 2014 Rise Set
Actual Time 6:58 AM EDT 8:31 PM EDT
Civil Twilight 6:28 AM EDT 9:00 PM EDT
Nautical Twilight 5:53 AM EDT 9:36 PM EDT
Astronomical Twilight 5:15 AM EDT 10:13 PM EDT
Moon 4:18 AM EDT 6:40 PM EDT
Length of Visible Light 14h 32m
Length of Day
13h 33m
Tomorrow will be 2m 34s shorter.
Waning Crescent, 8% of the Moon is Illuminated
Today
Waning Crescent
Aug 25
New
Sep 2
First Quarter
Sep 8
Full
Sep 15
Last Quarter

Today's Extremes

State Highs State Lows

Community

WunderPhotos

Upload Photos

1,746,181 photos uploaded!

WunderBlogs® & News

Nearby

Snow Depth

Station Depth Elevation
No new snow has been reported.

Earthquake Activity

City Distance Mag. Time & Date
No recent earthquake activity has been reported nearby.
Minimum magnitude displayed is 2.5.

Coastal Water Temperatures

Place Temperature
No Stations Reporting

Nearby Weather Stations